Time;durP1;ratioP1;P1;durP2;ratioP2;P2;SDS_P1;SDS_P2;PMS_P1;PMS_P2;Temp;Humidity;BMP_temperature;BMP_pressure;BME280_temperature;BME280_humidity;BME280_pressure;Samples;Min_cycle;Max_cycle;Signal;HPM_P1;HPM_P2
2021/11/12 00:02:47;;;;;;;44.65;17.90;;;;;;;1.56;100.00;99379.47;5069334;28;20028;-69
2021/11/12 00:13:28;;;;;;;70.22;15.50;;;;;;;1.17;100.00;99373.91;5063830;28;20102;-69
2021/11/12 00:15:56;;;;;;;51.15;16.13;;;;;;;1.22;100.00;99380.53;5068853;28;20024;-70
2021/11/12 00:18:25;;;;;;;38.10;16.23;;;;;;;1.23;100.00;99373.38;5063660;28;20052;-70
2021/11/12 00:20:52;;;;;;;95.97;17.48;;;;;;;1.17;100.00;99371.22;5070052;28;20039;-69
2021/11/12 00:23:19;;;;;;;38.05;15.43;;;;;;;1.21;100.00;99372.69;5070305;28;20040;-69
2021/11/12 00:25:47;;;;;;;55.67;16.65;;;;;;;1.20;100.00;99366.47;5065398;28;20047;-69
2021/11/12 00:28:14;;;;;;;61.90;17.17;;;;;;;1.26;100.00;99373.13;5067738;28;20422;-68
2021/11/12 00:38:10;;;;;;;60.95;17.50;;;;;;;1.22;100.00;99371.69;5064646;28;20033;-69
2021/11/12 00:45:28;;;;;;;79.63;16.20;;;;;;;1.22;100.00;99367.19;5061403;28;20161;-69
2021/11/12 00:47:57;;;;;;;55.25;16.88;;;;;;;1.21;100.00;99368.19;5072352;28;20009;-68
2021/11/12 00:50:53;;;;;;;44.42;17.17;;;;;;;0.89;100.00;99301.59;5076494;28;20039;-69
2021/11/12 00:55:43;;;;;;;91.28;18.63;;;;;;;1.16;100.00;99357.06;5067366;28;20099;-69
2021/11/12 00:58:13;;;;;;;64.28;16.63;;;;;;;1.17;100.00;99350.75;5066742;28;20032;-69
2021/11/12 01:00:39;;;;;;;55.70;16.95;;;;;;;1.24;100.00;99354.59;5065279;28;20785;-70
2021/11/12 01:03:05;;;;;;;35.30;15.73;;;;;;;1.18;100.00;99344.47;5062575;28;20115;-69
2021/11/12 01:05:30;;;;;;;53.25;15.20;;;;;;;1.22;100.00;99351.22;5064326;28;20032;-69
2021/11/12 01:08:00;;;;;;;81.63;16.33;;;;;;;1.18;100.00;99364.91;5063532;28;20784;-69
2021/11/12 01:10:29;;;;;;;29.90;15.68;;;;;;;1.26;100.00;99341.16;5060831;28;20037;-69
2021/11/12 01:12:54;;;;;;;59.65;15.88;;;;;;;1.23;100.00;99358.25;5065095;28;20022;-70
2021/11/12 01:15:20;;;;;;;120.18;17.77;;;;;;;0.92;100.00;99337.81;5060455;28;20032;-69
2021/11/12 01:17:47;;;;;;;44.22;14.95;;;;;;;1.16;100.00;99345.56;5063575;28;20063;-68
2021/11/12 01:20:15;;;;;;;33.78;15.23;;;;;;;1.25;100.00;99353.59;5067956;28;20754;-70
2021/11/12 01:22:43;;;;;;;69.55;15.82;;;;;;;1.09;100.00;99353.22;5068352;28;20484;-70
2021/11/12 01:25:10;;;;;;;44.13;15.38;;;;;;;1.12;100.00;99349.44;5063901;28;20028;-70
2021/11/12 01:27:37;;;;;;;37.75;15.25;;;;;;;1.18;100.00;99348.94;5068770;28;20082;-69
2021/11/12 01:30:03;;;;;;;28.95;14.70;;;;;;;1.09;100.00;99346.06;5070137;28;20063;-71
2021/11/12 01:32:30;;;;;;;66.18;16.95;;;;;;;0.94;100.00;99326.03;5067837;28;20165;-70
2021/11/12 01:34:57;;;;;;;46.15;16.40;;;;;;;1.00;100.00;99332.69;5068819;28;20466;-70
2021/11/12 01:37:25;;;;;;;59.42;16.85;;;;;;;1.03;100.00;99340.44;5067764;28;20052;-69
2021/11/12 01:39:55;;;;;;;152.20;19.63;;;;;;;0.81;100.00;99325.38;5070078;28;20029;-69
2021/11/12 01:42:23;;;;;;;101.80;18.23;;;;;;;0.75;100.00;99307.28;5069454;28;20055;-70
2021/11/12 01:44:58;;;;;;;133.25;20.08;;;;;;;0.93;100.00;99335.03;5063852;28;20020;-69
2021/11/12 01:47:36;;;;;;;31.98;15.57;;;;;;;0.92;100.00;99316.50;5058305;28;20024;-70
2021/11/12 01:50:08;;;;;;;64.33;17.43;;;;;;;0.99;100.00;99312.34;5057718;28;20043;-70
2021/11/12 01:52:41;;;;;;;42.03;16.00;;;;;;;1.01;100.00;99308.56;5057730;28;20573;-69
2021/11/12 01:58:05;;;;;;;34.38;16.35;;;;;;;1.16;100.00;99325.09;5055455;28;20133;-69
2021/11/12 02:00:32;;;;;;;106.82;17.70;;;;;;;1.06;100.00;99314.34;5070676;28;20028;-70
2021/11/12 02:02:59;;;;;;;58.20;16.83;;;;;;;1.09;100.00;99329.25;5066466;28;20038;-70
2021/11/12 02:05:25;;;;;;;31.58;16.48;;;;;;;0.95;100.00;99298.44;5062386;28;20031;-69
2021/11/12 02:07:54;;;;;;;71.80;18.20;;;;;;;1.16;100.00;99321.59;5066611;28;20028;-70
2021/11/12 02:10:23;;;;;;;80.60;17.83;;;;;;;1.16;100.00;99319.75;5069838;28;20085;-70
2021/11/12 02:13:00;;;;;;;108.05;18.02;;;;;;;1.15;100.00;99311.88;5067199;28;20028;-70
2021/11/12 02:15:26;;;;;;;86.97;17.67;;;;;;;1.24;100.00;99319.09;5059775;28;20500;-70
2021/11/12 02:18:07;;;;;;;104.03;19.48;;;;;;;1.12;100.00;99290.84;5067279;28;20029;-70
2021/11/12 02:23:03;;;;;;;57.17;17.23;;;;;;;1.24;100.00;99309.28;5055903;28;20090;-70
2021/11/12 02:25:33;;;;;;;48.58;16.60;;;;;;;1.28;100.00;99307.19;5065102;28;20029;-70
2021/11/12 02:28:02;;;;;;;44.67;16.58;;;;;;;1.21;100.00;99300.72;5070554;28;20050;-70
2021/11/12 02:30:31;;;;;;;93.75;17.15;;;;;;;1.17;100.00;99309.94;5069597;28;20127;-70
2021/11/12 02:33:00;;;;;;;56.63;16.08;;;;;;;1.21;100.00;99300.72;5067339;28;20035;-70
2021/11/12 02:35:26;;;;;;;49.42;16.52;;;;;;;1.21;100.00;99301.56;5060974;28;20055;-70
2021/11/12 02:37:52;;;;;;;58.08;17.42;;;;;;;1.05;100.00;99274.53;5067226;28;20024;-70
2021/11/12 02:40:18;;;;;;;38.35;16.13;;;;;;;1.08;100.00;99274.28;5068276;28;20056;-70
2021/11/12 02:42:43;;;;;;;72.70;16.38;;;;;;;0.92;100.00;99253.44;5067904;28;20047;-70
2021/11/12 02:45:09;;;;;;;45.03;15.55;;;;;;;1.13;100.00;99287.19;5063858;28;20032;-70
2021/11/12 02:47:34;;;;;;;80.47;17.40;;;;;;;1.18;100.00;99301.81;5067485;28;20040;-70
2021/11/12 02:49:59;;;;;;;48.35;16.30;;;;;;;1.21;100.00;99298.06;5063070;28;20035;-70
2021/11/12 02:52:26;;;;;;;70.88;17.05;;;;;;;1.19;100.00;99292.84;5070063;28;20036;-70
2021/11/12 02:54:52;;;;;;;61.83;16.15;;;;;;;1.14;100.00;99304.88;5066190;28;20024;-70
2021/11/12 02:57:20;;;;;;;59.53;16.65;;;;;;;1.16;100.00;99292.28;5066715;28;20036;-70
2021/11/12 02:59:46;;;;;;;196.23;17.70;;;;;;;1.08;100.00;99291.09;5066322;28;20020;-70
2021/11/12 03:02:12;;;;;;;54.08;16.17;;;;;;;1.08;100.00;99292.91;5065886;28;20059;-70
2021/11/12 03:04:37;;;;;;;29.95;15.90;;;;;;;1.13;100.00;99285.38;5061120;28;20060;-70
2021/11/12 03:07:03;;;;;;;68.38;16.48;;;;;;;1.01;100.00;99279.25;5063484;28;20039;-70
2021/11/12 03:09:31;;;;;;;98.55;17.98;;;;;;;0.91;100.00;99261.53;5065219;28;20032;-70
2021/11/12 03:11:59;;;;;;;58.97;15.15;;;;;;;0.98;100.00;99284.84;5068977;28;20044;-70
2021/11/12 03:14:25;;;;;;;40.45;14.98;;;;;;;0.99;100.00;99275.88;5068057;28;20025;-70
2021/11/12 03:16:51;;;;;;;79.38;18.65;;;;;;;0.95;100.00;99278.97;5064023;28;20029;-70
2021/11/12 03:19:19;;;;;;;75.93;15.20;;;;;;;0.81;100.00;99249.00;5061156;28;20040;-70
2021/11/12 03:21:45;;;;;;;73.63;15.48;;;;;;;0.88;100.00;99279.47;5065121;28;20110;-70
2021/11/12 03:24:49;;;;;;;54.60;15.10;;;;;;;0.93;100.00;99273.75;5068670;28;20032;-70
2021/11/12 03:30:45;;;;;;;37.00;13.93;;;;;;;0.95;100.00;99278.97;5040022;28;20183;-70
2021/11/12 04:00:51;;;;;;;24.17;13.30;;;;;;;0.81;100.00;99269.44;5044614;28;20111;-69
2021/11/12 04:03:23;;;;;;;29.40;13.68;;;;;;;0.83;100.00;99265.69;5063401;28;20039;-69
2021/11/12 04:19:57;;;;;;;39.53;13.73;;;;;;;0.82;100.00;99274.66;5048202;28;20036;-71
2021/11/12 05:51:30;;;;;;;23.23;12.13;;;;;;;0.72;100.00;99238.28;5054216;28;20102;-70
2021/11/12 05:56:41;;;;;;;22.38;12.82;;;;;;;0.60;100.00;99243.69;5067735;28;20551;-69
2021/11/12 05:59:07;;;;;;;25.00;12.45;;;;;;;0.39;100.00;99226.81;5070335;28;20119;-69
2021/11/12 06:01:34;;;;;;;38.17;12.57;;;;;;;0.39;100.00;99235.69;5062335;28;20474;-70
2021/11/12 06:04:01;;;;;;;22.40;12.02;;;;;;;0.40;100.00;99204.59;5064845;28;20497;-73
2021/11/12 06:06:26;;;;;;;40.83;13.50;;;;;;;0.56;100.00;99230.75;5064000;28;20064;-73
2021/11/12 06:08:52;;;;;;;90.28;14.80;;;;;;;0.26;100.00;99210.19;5062454;28;20105;-71
2021/11/12 06:11:17;;;;;;;61.72;14.45;;;;;;;0.49;100.00;99235.72;5057735;28;20032;-72
2021/11/12 06:13:43;;;;;;;108.28;15.18;;;;;;;0.49;100.00;99232.22;5071809;28;20021;-71
2021/11/12 06:16:09;;;;;;;93.13;16.23;;;;;;;0.31;100.00;99221.31;5069532;28;20033;-72
2021/11/12 06:18:35;;;;;;;58.88;13.48;;;;;;;0.46;100.00;99246.66;5069986;28;20020;-72
2021/11/12 06:21:00;;;;;;;24.42;13.00;;;;;;;0.54;100.00;99220.22;5068481;28;20031;-72
2021/11/12 06:23:27;;;;;;;60.50;15.88;;;;;;;0.42;100.00;99214.13;5066245;28;20028;-73
2021/11/12 06:25:52;;;;;;;48.53;14.18;;;;;;;0.60;100.00;99238.34;5064331;28;20036;-71
2021/11/12 06:28:18;;;;;;;42.15;13.02;;;;;;;0.44;100.00;99221.97;5065504;28;20032;-72
2021/11/12 06:30:43;;;;;;;35.70;13.02;;;;;;;0.26;100.00;99219.00;5058166;28;20032;-71
2021/11/12 06:33:08;;;;;;;84.20;14.70;;;;;;;0.29;100.00;99229.44;5065680;28;20497;-67
2021/11/12 06:35:34;;;;;;;41.10;14.43;;;;;;;0.32;100.00;99223.00;5063803;28;20559;-70
2021/11/12 06:37:59;;;;;;;55.47;12.82;;;;;;;0.41;100.00;99246.19;5061336;28;20028;-71
2021/11/12 06:40:24;;;;;;;91.57;14.60;;;;;;;0.43;100.00;99237.09;5068557;28;20109;-68
2021/11/12 06:43:04;;;;;;;96.03;15.52;;;;;;;0.44;100.00;99244.09;5068096;28;20047;-69
2021/11/12 06:50:59;;;;;;;53.45;12.95;;;;;;;0.70;100.00;99242.91;5062571;28;20032;-68
2021/11/12 06:53:24;;;;;;;44.92;13.35;;;;;;;0.71;100.00;99247.22;5056964;28;20029;-68
2021/11/12 06:55:50;;;;;;;38.42;12.43;;;;;;;0.69;100.00;99249.22;5068230;28;20070;-71
2021/11/12 06:58:15;;;;;;;104.35;14.77;;;;;;;0.35;100.00;99209.44;5056581;28;20047;-68
2021/11/12 07:00:41;;;;;;;44.97;14.23;;;;;;;0.61;100.00;99234.72;5065324;28;20031;-68
2021/11/12 07:03:07;;;;;;;129.30;15.68;;;;;;;0.39;100.00;99238.34;5069845;28;20522;-68
2021/11/12 07:05:32;;;;;;;79.05;15.48;;;;;;;0.40;100.00;99241.84;5067114;28;20118;-68
2021/11/12 07:07:58;;;;;;;59.17;13.57;;;;;;;0.53;100.00;99231.84;5060404;28;20036;-67
2021/11/12 07:10:23;;;;;;;50.58;12.70;;;;;;;0.15;100.00;99195.97;5065323;28;20028;-68
2021/11/12 07:12:51;;;;;;;49.15;12.63;;;;;;;0.42;100.00;99235.41;5066241;28;20128;-67
2021/11/12 07:15:18;;;;;;;52.15;11.63;;;;;;;0.33;100.00;99244.16;5057834;28;20043;-69
2021/11/12 07:17:44;;;;;;;21.95;11.82;;;;;;;0.37;100.00;99236.78;5056898;28;20391;-68
2021/11/12 07:20:09;;;;;;;44.03;14.57;;;;;;;0.18;100.00;99209.03;5053850;28;20078;-68
2021/11/12 07:22:35;;;;;;;45.13;13.60;;;;;;;0.36;100.00;99216.44;5058481;28;20569;-68
2021/11/12 07:25:01;;;;;;;84.22;12.68;;;;;;;0.50;100.00;99248.09;5058253;28;20040;-68
2021/11/12 07:27:27;;;;;;;24.65;11.27;;;;;;;0.67;100.00;99243.16;5061152;28;20425;-68
2021/11/12 07:29:52;;;;;;;44.17;10.98;;;;;;;0.55;100.00;99253.00;5064005;28;20105;-68
2021/11/12 07:32:18;;;;;;;19.90;11.10;;;;;;;0.67;100.00;99248.47;5060824;28;20024;-68
2021/11/12 07:34:46;;;;;;;40.33;12.20;;;;;;;0.53;100.00;99223.88;5057243;28;20082;-68
2021/11/12 07:37:12;;;;;;;37.80;12.25;;;;;;;0.68;100.00;99244.84;5062194;28;20033;-68
2021/11/12 07:39:49;;;;;;;22.15;11.98;;;;;;;0.74;100.00;99247.84;5067330;28;20139;-68
2021/11/12 07:47:22;;;;;;;35.15;11.82;;;;;;;0.63;100.00;99227.44;5063450;28;20044;-70
2021/11/12 07:49:54;;;;;;;25.05;12.15;;;;;;;0.87;100.00;99247.66;5065881;28;20043;-69
2021/11/12 07:52:22;;;;;;;21.33;11.57;;;;;;;0.95;100.00;99237.19;5062713;28;20500;-71
2021/11/12 07:54:49;;;;;;;21.80;11.30;;;;;;;1.12;100.00;99237.53;5076096;28;20497;-71
2021/11/12 07:57:15;;;;;;;36.13;12.15;;;;;;;1.08;100.00;99223.66;5060788;28;20040;-69
2021/11/12 07:59:40;;;;;;;46.55;11.77;;;;;;;0.91;100.00;99206.44;5066629;28;20035;-70
2021/11/12 08:02:06;;;;;;;20.98;11.38;;;;;;;1.07;100.00;99222.81;5060575;28;20032;-70
2021/11/12 08:04:33;;;;;;;28.58;11.98;;;;;;;0.98;100.00;99188.94;5065960;28;20032;-71
2021/11/12 08:07:00;;;;;;;20.80;11.68;;;;;;;1.22;100.00;99211.78;5053715;28;20040;-69
2021/11/12 08:09:37;;;;;;;32.15;10.98;;;;;;;1.22;100.00;99209.94;5059595;28;20029;-70
2021/11/12 08:12:10;;;;;;;24.85;11.93;;;;;;;1.19;100.00;99190.72;5064110;28;20051;-69
2021/11/12 08:17:32;;;;;;;17.48;10.52;;;;;;;1.38;100.00;99204.13;5068992;28;20091;-69
2021/11/12 08:20:07;;;;;;;28.05;11.68;;;;;;;1.49;100.00;99203.16;5057619;28;20032;-72
2021/11/12 08:22:44;;;;;;;18.20;10.68;;;;;;;1.62;100.00;99193.09;5063841;28;20121;-69
2021/11/12 08:40:35;;;;;;;27.63;10.10;;;;;;;1.89;100.00;99200.47;5066771;28;20036;-68
2021/11/12 08:43:08;;;;;;;21.30;10.38;;;;;;;2.02;100.00;99207.34;5066845;28;20036;-68
2021/11/12 08:45:39;;;;;;;24.83;11.18;;;;;;;2.06;100.00;99195.44;5069931;28;20514;-68
2021/11/12 08:48:09;;;;;;;31.17;11.75;;;;;;;2.15;99.85;99190.09;5069647;28;20078;-68
2021/11/12 08:50:36;;;;;;;19.75;11.07;;;;;;;2.24;99.92;99183.06;5063979;28;20029;-69
2021/11/12 08:53:05;;;;;;;16.75;11.35;;;;;;;2.31;100.00;99181.53;5067188;28;20484;-68
2021/11/12 08:55:32;;;;;;;19.35;10.80;;;;;;;2.39;99.85;99160.28;5065108;28;20032;-68
2021/11/12 08:57:58;;;;;;;20.25;12.07;;;;;;;2.51;99.22;99177.00;5061725;28;20056;-68
2021/11/12 09:00:24;;;;;;;23.15;11.80;;;;;;;2.26;97.67;99175.75;5066915;28;20063;-68
2021/11/12 09:02:51;;;;;;;21.33;11.68;;;;;;;2.52;97.07;99185.88;5066882;28;20517;-68
2021/11/12 09:05:18;;;;;;;39.28;12.52;;;;;;;2.24;98.12;99172.38;5063061;28;20036;-68
2021/11/12 09:07:50;;;;;;;24.75;11.95;;;;;;;2.22;98.14;99192.19;5066977;28;20095;-68
2021/11/12 09:10:17;;;;;;;19.77;11.55;;;;;;;2.29;100.00;99186.16;5085359;28;20080;-71
2021/11/12 09:12:47;;;;;;;21.95;11.90;;;;;;;2.48;99.99;99187.13;5065739;28;20572;-70
2021/11/12 09:15:21;;;;;;;20.67;11.85;;;;;;;2.53;99.61;99195.56;5069264;28;20124;-69
2021/11/12 09:17:47;;;;;;;20.98;11.98;;;;;;;2.58;100.00;99179.94;5068723;28;20119;-69
2021/11/12 09:20:14;;;;;;;20.35;12.90;;;;;;;2.90;99.40;99197.44;5063777;28;20124;-71
2021/11/12 09:22:40;;;;;;;28.20;12.85;;;;;;;2.81;97.75;99193.81;5065579;28;20103;-68
2021/11/12 09:25:06;;;;;;;27.25;13.65;;;;;;;2.80;97.98;99179.63;5070740;28;20570;-68
2021/11/12 09:27:32;;;;;;;36.83;12.68;;;;;;;2.71;98.58;99185.81;5066734;28;20094;-68
2021/11/12 09:29:57;;;;;;;29.70;12.80;;;;;;;2.66;98.08;99172.06;5068652;28;20482;-68
2021/11/12 09:32:23;;;;;;;28.95;12.90;;;;;;;2.69;98.75;99178.94;5064581;28;20033;-68
2021/11/12 09:34:49;;;;;;;19.88;12.52;;;;;;;2.91;98.62;99186.63;5060649;28;20032;-68
2021/11/12 09:37:20;;;;;;;27.85;12.45;;;;;;;2.74;98.24;99152.63;5066100;28;20036;-68
2021/11/12 09:39:52;;;;;;;33.38;12.18;;;;;;;2.93;96.53;99187.31;5067462;28;20112;-70
2021/11/12 09:42:18;;;;;;;22.80;12.48;;;;;;;2.96;96.54;99188.84;5066425;28;20782;-75
2021/11/12 09:44:44;;;;;;;25.65;12.60;;;;;;;3.01;96.67;99186.56;5065929;28;20035;-71
2021/11/12 09:47:10;;;;;;;32.70;13.68;;;;;;;2.84;95.45;99151.63;5070302;28;20032;-72
2021/11/12 09:49:37;;;;;;;25.17;12.02;;;;;;;3.13;95.44;99179.25;5055176;28;20036;-69
2021/11/12 09:52:06;;;;;;;19.98;11.52;;;;;;;3.31;95.67;99179.31;5051752;28;20707;-70
2021/11/12 09:54:31;;;;;;;23.50;12.15;;;;;;;3.50;92.48;99155.13;5066302;28;20032;-70
2021/11/12 09:56:56;;;;;;;31.02;13.25;;;;;;;3.10;92.62;99152.81;5069707;28;20086;-70
2021/11/12 09:59:22;;;;;;;25.13;12.10;;;;;;;3.12;94.62;99142.78;5068938;28;20097;-70
2021/11/12 10:01:47;;;;;;;24.15;11.25;;;;;;;3.12;95.57;99159.69;5068695;28;20094;-71
2021/11/12 10:04:12;;;;;;;29.13;12.48;;;;;;;3.24;96.09;99160.31;5055867;28;20032;-70
2021/11/12 10:06:42;;;;;;;23.25;12.13;;;;;;;3.23;96.27;99158.66;5060190;28;20033;-71
2021/11/12 10:09:19;;;;;;;21.83;12.98;;;;;;;3.28;94.65;99140.34;5057219;28;20021;-71
2021/11/12 10:11:52;;;;;;;23.63;13.10;;;;;;;3.34;95.15;99168.31;5069641;28;20024;-70
2021/11/12 10:14:52;;;;;;;23.80;12.02;;;;;;;3.39;95.06;99166.03;5061373;28;20111;-70
2021/11/12 10:17:22;;;;;;;22.17;13.07;;;;;;;3.20;95.28;99122.34;5055013;28;20028;-71
2021/11/12 10:19:53;;;;;;;26.33;13.13;;;;;;;3.36;95.57;99155.63;5070277;28;20039;-70
2021/11/12 10:22:24;;;;;;;28.52;14.23;;;;;;;3.35;94.17;99136.06;5067005;28;20017;-70
2021/11/12 10:24:49;;;;;;;31.08;14.98;;;;;;;3.40;94.15;99123.06;5062020;28;20031;-70
2021/11/12 10:27:18;;;;;;;23.25;14.05;;;;;;;3.58;93.32;99122.28;5057428;28;20029;-71
2021/11/12 10:29:49;;;;;;;21.38;13.00;;;;;;;3.62;92.04;99111.13;5056849;28;20029;-70
2021/11/12 10:32:18;;;;;;;28.52;13.98;;;;;;;3.51;92.26;99114.88;5055857;28;20028;-71
2021/11/12 10:34:44;;;;;;;30.95;13.52;;;;;;;3.71;92.08;99123.59;5063864;28;20032;-71
2021/11/12 10:37:37;;;;;;;33.60;14.30;;;;;;;3.77;91.71;99103.41;5070012;28;20036;-70
2021/11/12 10:40:07;;;;;;;29.13;14.98;;;;;;;3.75;93.56;99110.75;5067089;28;20125;-71
2021/11/12 10:42:35;;;;;;;32.03;15.27;;;;;;;3.76;93.80;99088.34;5057474;28;20174;-71
2021/11/12 10:45:08;;;;;;;28.63;14.97;;;;;;;3.79;94.61;99096.06;5062459;28;20482;-71
2021/11/12 10:47:36;;;;;;;26.27;14.02;;;;;;;3.92;95.28;99099.19;5074865;28;20298;-71
2021/11/12 10:50:08;;;;;;;22.33;12.68;;;;;;;4.08;93.54;99084.28;5079762;28;20031;-71
2021/11/12 10:52:35;;;;;;;24.45;14.00;;;;;;;3.86;92.27;99080.25;5068252;28;20025;-71
2021/11/12 10:55:07;;;;;;;27.20;14.70;;;;;;;3.85;92.35;99076.72;5068670;28;20036;-71
2021/11/12 10:57:40;;;;;;;29.55;15.80;;;;;;;3.89;93.17;99058.53;5067681;28;20580;-71
2021/11/12 11:00:12;;;;;;;30.95;15.20;;;;;;;3.88;93.58;99056.84;5063611;28;20367;-71
2021/11/12 11:02:55;;;;;;;28.95;15.75;;;;;;;4.00;92.42;99050.25;5064514;28;20449;-71
2021/11/12 11:05:26;;;;;;;27.73;14.55;;;;;;;3.95;91.13;99047.19;5051848;28;20483;-71
2021/11/12 11:07:59;;;;;;;39.97;16.02;;;;;;;3.79;92.68;99053.25;5067199;28;20454;-71
2021/11/12 11:10:29;;;;;;;43.80;17.15;;;;;;;3.67;91.50;99038.44;5063650;28;20036;-71
2021/11/12 11:13:00;;;;;;;33.55;17.17;;;;;;;4.07;91.92;99053.97;5071452;28;20031;-71
2021/11/12 11:15:34;;;;;;;34.35;16.60;;;;;;;3.86;92.21;99034.75;5051515;28;20013;-71
2021/11/12 11:18:28;;;;;;;36.60;18.13;;;;;;;3.99;93.93;99063.78;5068700;28;20762;-71
2021/11/12 11:21:12;;;;;;;37.15;17.38;;;;;;;3.90;92.41;99060.19;5055890;28;20394;-70
2021/11/12 11:23:51;;;;;;;27.45;14.52;;;;;;;4.12;92.55;99048.16;5062986;28;20061;-71
2021/11/12 11:26:23;;;;;;;29.77;15.57;;;;;;;4.00;92.33;99060.94;5078571;28;20028;-71
2021/11/12 11:28:57;;;;;;;30.90;16.60;;;;;;;4.02;92.72;99067.00;5079869;28;20513;-70
2021/11/12 11:31:23;;;;;;;29.38;15.55;;;;;;;3.86;93.74;99037.41;5063863;28;20506;-71
2021/11/12 11:33:50;;;;;;;29.08;14.88;;;;;;;3.86;93.51;99035.59;5079660;28;20112;-71
2021/11/12 11:36:22;;;;;;;32.15;15.32;;;;;;;3.98;94.37;99041.50;5079479;28;20071;-71
2021/11/12 11:38:48;;;;;;;31.75;17.55;;;;;;;4.13;93.59;99033.78;5075274;28;20060;-71
2021/11/12 11:41:17;;;;;;;29.35;16.35;;;;;;;4.21;92.51;99035.66;5079124;28;20028;-71
2021/11/12 11:43:43;;;;;;;27.67;15.93;;;;;;;4.30;94.09;99030.22;5073624;28;20432;-71
2021/11/12 11:46:14;;;;;;;56.22;16.15;;;;;;;4.23;92.41;99034.50;5076212;28;20097;-71
2021/11/12 11:48:42;;;;;;;48.80;16.20;;;;;;;3.91;93.78;99032.44;5062882;28;20020;-71
2021/11/12 11:51:09;;;;;;;25.75;15.48;;;;;;;4.23;94.01;99033.69;5067684;28;20562;-71
2021/11/12 11:53:44;;;;;;;27.42;15.38;;;;;;;4.41;93.77;99028.28;5068701;28;20027;-71
2021/11/12 11:56:19;;;;;;;24.90;15.32;;;;;;;4.34;91.75;99028.88;5064920;28;20877;-71
2021/11/12 11:58:52;;;;;;;32.03;16.10;;;;;;;4.26;93.93;99014.63;5054651;28;20036;-71
2021/11/12 12:01:27;;;;;;;34.95;16.65;;;;;;;4.15;92.96;99013.03;5066943;28;20565;-71
2021/11/12 12:04:12;;;;;;;32.47;17.40;;;;;;;4.16;94.85;98999.47;5068628;28;20115;-71
2021/11/12 12:06:57;;;;;;;27.52;16.42;;;;;;;4.20;93.99;99001.88;5058130;28;20028;-71
2021/11/12 12:10:01;;;;;;;31.40;16.08;;;;;;;4.23;94.34;98999.69;5062951;28;20102;-71
2021/11/12 12:12:29;;;;;;;26.90;14.77;;;;;;;4.37;93.90;98988.38;5052059;28;20398;-69
2021/11/12 12:15:18;;;;;;;29.10;16.92;;;;;;;4.51;92.61;98984.28;5055435;28;20070;-69
2021/11/12 12:17:46;;;;;;;30.42;16.50;;;;;;;4.26;94.32;98986.00;5063986;28;20036;-69
2021/11/12 12:20:32;;;;;;;39.30;16.23;;;;;;;4.27;92.77;98989.50;5069067;28;20040;-69
2021/11/12 13:24:59;;;;;;;32.10;18.88;;;;;;;4.70;93.31;98931.44;5046412;28;20025;-69
2021/11/12 13:27:28;;;;;;;44.83;22.48;;;;;;;4.52;94.15;98927.00;5049452;28;20397;-68
2021/11/12 13:29:55;;;;;;;39.95;20.08;;;;;;;4.35;94.00;98909.22;5050273;28;20037;-68
2021/11/12 13:32:20;;;;;;;32.83;17.98;;;;;;;4.57;93.89;98927.38;5048419;28;20033;-68
2021/11/12 13:34:47;;;;;;;30.17;17.90;;;;;;;4.54;94.73;98934.91;5043327;28;20052;-68
2021/11/12 13:37:21;;;;;;;31.42;17.23;;;;;;;4.41;94.64;98924.63;5041132;28;20032;-67
2021/11/12 13:40:04;;;;;;;29.77;17.00;;;;;;;4.15;95.95;98919.31;5051562;28;20041;-68
2021/11/12 13:42:45;;;;;;;35.78;18.75;;;;;;;4.13;97.60;98927.50;5049487;28;20037;-68
2021/11/12 13:45:17;;;;;;;33.85;18.95;;;;;;;4.23;97.64;98918.53;5050968;28;20029;-69
2021/11/12 13:47:44;;;;;;;32.63;17.90;;;;;;;4.39;97.16;98915.91;5042845;28;20072;-69
2021/11/12 13:50:10;;;;;;;36.53;19.48;;;;;;;4.32;95.57;98904.16;5046836;28;20017;-68
2021/11/12 13:52:42;;;;;;;35.47;19.63;;;;;;;4.40;94.71;98909.53;5041943;28;20395;-68
2021/11/12 13:55:15;;;;;;;35.53;19.88;;;;;;;4.49;95.86;98922.00;5039701;28;20036;-68
2021/11/12 13:57:54;;;;;;;35.78;19.52;;;;;;;4.53;95.26;98931.41;5048375;28;20017;-69
2021/11/12 14:00:22;;;;;;;41.40;20.52;;;;;;;4.39;95.54;98921.28;5045231;28;20478;-68
2021/11/12 14:02:54;;;;;;;39.13;20.70;;;;;;;4.23;96.15;98921.22;5050951;28;20052;-68
2021/11/12 14:05:20;;;;;;;38.17;20.92;;;;;;;4.08;97.26;98932.50;5045472;28;20044;-69
2021/11/12 14:07:46;;;;;;;40.13;19.90;;;;;;;3.92;98.51;98925.22;5034713;28;20116;-68
2021/11/12 14:10:16;;;;;;;40.33;20.85;;;;;;;3.90;99.46;98937.06;5039068;28;20059;-68
2021/11/12 14:12:57;;;;;;;38.30;18.90;;;;;;;3.95;99.18;98932.09;5045547;28;20037;-68
2021/11/12 14:15:29;;;;;;;34.42;18.55;;;;;;;3.85;99.14;98934.88;5037095;28;20092;-67
2021/11/12 14:18:31;;;;;;;37.65;20.23;;;;;;;3.76;98.71;98940.34;5037793;28;20035;-68
2021/11/12 14:21:33;;;;;;;34.47;19.52;;;;;;;3.69;100.00;98932.94;5048414;28;20025;-66
2021/11/12 14:35:13;;;;;;;44.92;21.25;;;;;;;3.40;100.00;98935.88;5038914;28;20025;-67
2021/11/12 14:40:40;;;;;;;42.83;20.10;;;;;;;3.34;100.00;98919.59;5050765;28;20155;-69
2021/11/12 14:46:03;;;;;;;44.28;20.80;;;;;;;3.20;100.00;98935.22;5047374;28;20017;-69
2021/11/12 14:48:43;;;;;;;42.10;19.60;;;;;;;3.12;100.00;98943.16;5038279;28;20398;-69
2021/11/12 14:51:12;;;;;;;40.65;20.08;;;;;;;3.02;100.00;98937.88;5047095;28;20514;-69
2021/11/12 14:53:49;;;;;;;40.03;20.20;;;;;;;3.03;100.00;98936.03;5038954;28;20036;-69
2021/11/12 14:56:21;;;;;;;41.30;19.67;;;;;;;2.97;100.00;98933.97;5043335;28;20058;-69
2021/11/12 14:58:53;;;;;;;41.17;20.50;;;;;;;2.97;100.00;98939.31;5043994;28;20401;-69
2021/11/12 15:01:21;;;;;;;42.38;21.02;;;;;;;2.97;100.00;98940.16;5037373;28;20029;-69
2021/11/12 15:03:47;;;;;;;41.45;20.45;;;;;;;2.97;100.00;98942.00;5051194;28;20032;-69
2021/11/12 15:06:15;;;;;;;39.92;20.52;;;;;;;2.95;100.00;98939.47;5042204;28;20037;-69
2021/11/12 15:08:51;;;;;;;39.70;19.92;;;;;;;3.03;100.00;98949.41;5039830;28;20029;-69
2021/11/12 15:11:20;;;;;;;43.05;20.42;;;;;;;2.96;100.00;98942.97;5032483;28;20053;-69
2021/11/12 15:13:47;;;;;;;49.50;21.50;;;;;;;2.94;100.00;98939.63;5038998;28;20107;-69
2021/11/12 15:16:23;;;;;;;40.92;22.23;;;;;;;2.70;100.00;98902.78;5039007;28;20065;-69
2021/11/12 15:18:54;;;;;;;41.80;20.55;;;;;;;2.84;100.00;98929.00;5045612;28;20024;-69
2021/11/12 15:21:26;;;;;;;46.13;21.23;;;;;;;2.89;100.00;98929.38;5055344;28;20452;-68
2021/11/12 15:29:21;;;;;;;41.03;21.95;;;;;;;2.81;100.00;98924.78;5044713;28;20108;-69
2021/11/12 15:34:51;;;;;;;39.50;19.67;;;;;;;2.81;100.00;98942.66;5012143;28;20048;-68
2021/11/12 15:37:35;;;;;;;42.95;21.55;;;;;;;2.95;100.00;98939.47;5029947;28;20505;-68
2021/11/12 15:40:22;;;;;;;39.90;20.52;;;;;;;2.77;100.00;98922.56;5037329;28;20093;-69
2021/11/12 15:45:24;;;;;;;46.22;22.40;;;;;;;2.87;100.00;98955.41;5031184;28;20041;-68
2021/11/12 15:50:40;;;;;;;53.80;22.75;;;;;;;2.71;100.00;98947.22;5027665;28;20034;-68
2021/11/12 15:53:43;;;;;;;54.28;23.05;;;;;;;2.67;100.00;98956.50;5030960;28;20030;-68
2021/11/12 15:58:38;;;;;;;42.72;21.58;;;;;;;2.71;100.00;98961.41;5031370;28;20021;-68
2021/11/12 16:01:21;;;;;;;46.55;20.85;;;;;;;2.68;100.00;98959.03;5030440;28;20091;-68
2021/11/12 16:14:07;;;;;;;45.72;21.25;;;;;;;2.55;100.00;98948.72;5030268;28;20029;-68
2021/11/12 16:19:25;;;;;;;55.60;22.45;;;;;;;2.74;100.00;98945.09;5031058;28;20544;-68
2021/11/12 16:27:01;;;;;;;57.83;20.98;;;;;;;2.41;100.00;98933.16;5040702;28;20025;-68
2021/11/12 16:29:45;;;;;;;56.70;20.95;;;;;;;2.51;100.00;98949.16;5046079;28;20029;-69
2021/11/12 16:32:20;;;;;;;47.58;20.23;;;;;;;2.49;100.00;98948.44;5025655;28;20036;-68
2021/11/12 16:34:49;;;;;;;41.35;21.40;;;;;;;2.47;100.00;98945.09;5042374;28;20052;-68
2021/11/12 16:37:17;;;;;;;80.75;22.35;;;;;;;2.23;100.00;98922.47;5043467;28;20036;-68
2021/11/12 16:39:49;;;;;;;56.75;20.77;;;;;;;2.40;100.00;98937.66;5041913;28;20060;-68
2021/11/12 16:42:29;;;;;;;61.95;20.92;;;;;;;2.14;100.00;98918.00;5043121;28;20064;-68